Time;durP1;ratioP1;P1;durP2;ratioP2;P2;SDS_P1;SDS_P2;PMS_P1;PMS_P2;Temp;Humidity;BMP_temperature;BMP_pressure;BME280_temperature;BME280_humidity;BME280_pressure;Samples;Min_cycle;Max_cycle;Signal;HPM_P1;HPM_P2
2021/04/06 00:01:44;;;;;;;16.38;1.60;;;1.40;99.90;;;;;;4925748;28;20145;-88
2021/04/06 00:04:09;;;;;;;13.73;1.67;;;;;;;;;;4915349;28;20090;-88
2021/04/06 00:06:33;;;;;;;9.27;1.27;;;1.30;99.90;;;;;;4927296;28;20093;-87
2021/04/06 00:08:57;;;;;;;11.45;1.67;;;1.30;99.90;;;;;;4925455;28;20159;-87
2021/04/06 00:11:20;;;;;;;16.67;1.30;;;1.20;99.90;;;;;;4926055;28;20092;-84
2021/04/06 00:13:43;;;;;;;11.43;1.65;;;1.20;99.90;;;;;;4925816;28;20480;-88
2021/04/06 00:16:09;;;;;;;11.48;1.20;;;1.20;99.90;;;;;;4927188;28;20137;-88
2021/04/06 00:18:33;;;;;;;15.70;1.48;;;1.20;99.90;;;;;;4926474;28;20510;-87
2021/04/06 00:20:58;;;;;;;9.23;1.10;;;1.10;99.90;;;;;;4926046;28;20090;-89
2021/04/06 00:23:22;;;;;;;18.80;1.67;;;1.00;99.90;;;;;;4926764;28;20426;-88
2021/04/06 00:25:49;;;;;;;12.63;1.15;;;0.90;99.90;;;;;;4925941;28;20094;-88
2021/04/06 00:28:16;;;;;;;14.55;1.10;;;;;;;;;;4919965;28;20531;-85
2021/04/06 00:30:42;;;;;;;10.80;1.10;;;0.80;99.90;;;;;;4924665;28;20543;-87
2021/04/06 00:33:13;;;;;;;15.98;1.83;;;0.90;99.90;;;;;;4923789;28;20095;-90
2021/04/06 00:35:37;;;;;;;9.13;1.23;;;0.90;99.90;;;;;;4925422;28;20085;-90
2021/04/06 00:38:02;;;;;;;16.38;1.30;;;0.90;99.90;;;;;;4925121;28;20162;-90
2021/04/06 00:40:28;;;;;;;10.63;1.25;;;0.90;99.90;;;;;;4917812;28;20575;-88
2021/04/06 00:42:59;;;;;;;;;;;0.90;99.90;;;;;;4924767;28;20101;-88
2021/04/06 00:45:24;;;;;;;10.82;1.00;;;0.90;99.90;;;;;;4923070;28;20044;-90
2021/04/06 00:47:59;;;;;;;10.73;1.20;;;0.90;99.90;;;;;;4923938;28;20093;-85
2021/04/06 00:50:32;;;;;;;15.50;1.52;;;0.90;99.90;;;;;;4925150;28;20178;-90
2021/04/06 00:52:56;;;;;;;7.85;1.10;;;0.90;99.90;;;;;;4925680;28;20092;-88
2021/04/06 00:55:20;;;;;;;11.32;1.45;;;0.90;99.90;;;;;;4924146;28;20142;-90
2021/04/06 00:57:45;;;;;;;6.72;1.02;;;0.90;99.90;;;;;;4925649;28;20627;-88
2021/04/06 01:00:17;;;;;;;15.25;1.67;;;3.20;99.90;;;;;;4926388;28;20112;-89
2021/04/06 01:02:40;;;;;;;17.35;1.92;;;1.00;99.90;;;;;;4926197;28;20083;-89
2021/04/06 01:05:05;;;;;;;13.85;0.98;;;0.90;99.90;;;;;;4923288;28;20101;-89
2021/04/06 01:07:30;;;;;;;11.13;0.90;;;;;;;;;;4917483;28;20137;-88
2021/04/06 01:09:54;;;;;;;8.10;1.15;;;0.90;99.90;;;;;;4925863;28;20094;-90
2021/04/06 01:12:19;;;;;;;9.63;1.20;;;0.90;99.90;;;;;;4927216;28;20115;-83
2021/04/06 01:14:43;;;;;;;11.05;1.25;;;;;;;;;;4928654;28;20115;-88
2021/04/06 01:17:07;;;;;;;19.80;1.55;;;0.90;99.90;;;;;;4928867;28;20536;-87
2021/04/06 01:19:31;;;;;;;15.45;1.58;;;0.90;99.90;;;;;;4930070;28;20094;-84
2021/04/06 01:21:54;;;;;;;14.00;1.38;;;0.80;99.90;;;;;;4917471;28;20477;-87
2021/04/06 01:24:22;;;;;;;19.48;1.58;;;0.80;99.90;;;;;;4909681;28;20093;-85
2021/04/06 01:26:44;;;;;;;18.95;1.83;;;0.80;99.90;;;;;;4929127;28;20100;-88
2021/04/06 01:29:07;;;;;;;9.43;1.23;;;0.80;99.90;;;;;;4931286;28;20083;-88
2021/04/06 01:31:29;;;;;;;14.98;1.75;;;0.80;99.90;;;;;;4928132;28;20102;-87
2021/04/06 01:33:52;;;;;;;10.45;1.92;;;0.70;99.90;;;;;;4929391;28;20098;-85
2021/04/06 01:36:15;;;;;;;14.20;1.20;;;0.80;99.90;;;;;;4928415;28;20193;-88
2021/04/06 01:38:40;;;;;;;21.75;1.30;;;0.70;99.90;;;;;;4930095;28;21839;-86
2021/04/06 01:41:04;;;;;;;12.00;1.50;;;0.70;99.90;;;;;;4928233;28;20191;-88
2021/04/06 01:43:29;;;;;;;10.93;0.95;;;0.70;99.90;;;;;;4919201;28;20446;-87
2021/04/06 01:45:56;;;;;;;9.70;1.45;;;0.70;99.90;;;;;;4927885;28;20083;-87
2021/04/06 01:48:20;;;;;;;13.73;1.48;;;0.70;99.90;;;;;;4928566;28;20111;-88
2021/04/06 01:50:43;;;;;;;16.42;1.13;;;0.70;99.90;;;;;;4928847;28;20278;-87
2021/04/06 01:53:06;;;;;;;10.35;1.25;;;0.70;99.90;;;;;;4927364;28;20090;-87
2021/04/06 01:55:34;;;;;;;5.57;1.00;;;0.70;99.90;;;;;;4929266;28;20611;-87
2021/04/06 01:58:01;;;;;;;10.98;1.33;;;0.70;99.90;;;;;;4928249;28;20514;-86
2021/04/06 02:00:29;;;;;;;7.05;0.70;;;0.70;99.90;;;;;;4928157;28;20111;-85
2021/04/06 02:02:54;;;;;;;9.85;1.08;;;0.70;99.90;;;;;;4928055;28;20419;-89
2021/04/06 02:05:17;;;;;;;25.63;1.65;;;0.70;99.90;;;;;;4929039;28;20126;-89
2021/04/06 02:07:43;;;;;;;10.50;1.02;;;0.70;99.90;;;;;;4928631;28;20092;-90
2021/04/06 02:10:08;;;;;;;10.15;1.80;;;0.70;99.90;;;;;;4912266;28;20100;-91
2021/04/06 02:12:36;;;;;;;14.18;1.20;;;0.70;99.90;;;;;;4923613;28;20133;-87
2021/04/06 02:15:02;;;;;;;20.35;1.33;;;0.70;99.90;;;;;;4929600;28;20089;-89
2021/04/06 02:17:27;;;;;;;10.45;1.15;;;0.60;99.90;;;;;;4926936;28;20085;-92
2021/04/06 02:19:49;;;;;;;12.00;1.10;;;0.50;99.90;;;;;;4928741;28;20095;-83
2021/04/06 02:22:14;;;;;;;20.33;1.63;;;0.60;99.90;;;;;;4929055;28;20097;-89
2021/04/06 02:24:40;;;;;;;12.02;1.52;;;0.60;99.90;;;;;;4925877;28;20099;-89
2021/04/06 02:27:07;;;;;;;6.25;2.10;;;0.50;99.90;;;;;;4928802;28;20123;-87
2021/04/06 02:29:30;;;;;;;5.38;1.20;;;0.50;99.90;;;;;;4929237;28;20134;-90
2021/04/06 02:31:54;;;;;;;12.05;2.35;;;0.50;99.90;;;;;;4927464;28;20162;-88
2021/04/06 02:34:16;;;;;;;10.02;0.93;;;0.50;99.90;;;;;;4926300;28;20187;-88
2021/04/06 02:36:39;;;;;;;12.68;0.88;;;;;;;;;;4929295;28;20097;-90
2021/04/06 02:39:04;;;;;;;13.10;1.15;;;0.60;99.90;;;;;;4928348;28;20087;-84
2021/04/06 02:41:30;;;;;;;12.27;1.08;;;0.60;99.90;;;;;;4928766;28;20095;-90
2021/04/06 02:43:54;;;;;;;6.20;0.93;;;0.60;99.90;;;;;;4929368;28;20526;-88
2021/04/06 02:46:20;;;;;;;13.50;1.30;;;0.60;99.90;;;;;;4927150;28;20093;-86
2021/04/06 02:48:44;;;;;;;12.77;1.25;;;0.60;99.90;;;;;;4928029;28;20099;-90
2021/04/06 02:51:09;;;;;;;5.03;1.30;;;0.60;99.90;;;;;;4927560;28;20098;-91
2021/04/06 02:53:32;;;;;;;15.68;1.15;;;0.60;99.90;;;;;;4927390;28;20093;-92
2021/04/06 02:55:58;;;;;;;7.88;0.93;;;0.60;99.90;;;;;;4927826;28;20091;-92
2021/04/06 02:58:20;;;;;;;;;;;0.60;99.90;;;;;;4926374;28;20097;-89
2021/04/06 03:00:44;;;;;;;10.10;1.48;;;0.60;99.90;;;;;;4922482;28;19971;-90
2021/04/06 03:03:21;;;;;;;11.50;2.05;;;0.60;99.90;;;;;;4928695;28;20144;-89
2021/04/06 03:05:45;;;;;;;10.40;1.67;;;0.60;99.90;;;;;;4924790;28;20089;-89
2021/04/06 03:08:07;;;;;;;8.23;1.08;;;0.50;99.90;;;;;;4924767;28;20113;-88
2021/04/06 03:10:32;;;;;;;11.52;1.48;;;0.50;99.90;;;;;;4927568;28;20097;-90
2021/04/06 03:12:54;;;;;;;8.93;2.03;;;;;;;;;;4924479;28;20111;-89
2021/04/06 03:15:22;;;;;;;19.33;1.13;;;0.50;99.90;;;;;;4928030;28;20101;-86
2021/04/06 03:17:46;;;;;;;8.80;1.30;;;0.40;99.90;;;;;;4924466;28;20438;-87
2021/04/06 03:20:13;;;;;;;16.63;1.65;;;0.40;99.90;;;;;;4927878;28;20100;-89
2021/04/06 03:22:37;;;;;;;5.78;1.42;;;0.50;99.90;;;;;;4926413;28;20554;-92
2021/04/06 03:24:59;;;;;;;10.32;1.73;;;0.50;99.90;;;;;;4926435;28;20095;-92
2021/04/06 03:27:29;;;;;;;9.40;1.67;;;0.50;99.90;;;;;;4926314;28;20146;-92
2021/04/06 03:29:52;;;;;;;13.20;1.27;;;0.50;99.90;;;;;;4927370;28;20101;-90
2021/04/06 03:32:16;;;;;;;7.68;1.20;;;0.50;99.90;;;;;;4928488;28;20152;-91
2021/04/06 03:34:39;;;;;;;10.60;1.35;;;0.50;99.90;;;;;;4924859;28;20103;-90
2021/04/06 03:37:03;;;;;;;12.85;1.65;;;0.50;99.90;;;;;;4927836;28;20438;-91
2021/04/06 03:39:27;;;;;;;12.20;1.27;;;0.50;99.90;;;;;;4925095;28;20133;-91
2021/04/06 03:41:52;;;;;;;13.02;1.40;;;0.50;99.90;;;;;;4927969;28;20100;-92
2021/04/06 03:44:15;;;;;;;16.23;1.20;;;0.50;99.90;;;;;;4926679;28;20455;-90
2021/04/06 03:46:39;;;;;;;12.80;1.25;;;0.50;99.90;;;;;;4926632;28;20105;-90
2021/04/06 03:49:16;;;;;;;6.00;1.40;;;0.50;99.90;;;;;;4927175;28;20087;-92
2021/04/06 03:51:48;;;;;;;2.47;0.68;;;0.50;99.90;;;;;;4918690;28;20094;-85
2021/04/06 03:54:28;;;;;;;7.18;1.58;;;0.50;99.90;;;;;;4926267;28;20584;-88
2021/04/06 03:56:52;;;;;;;11.07;1.48;;;0.50;99.90;;;;;;4926121;28;20091;-88
2021/04/06 03:59:15;;;;;;;16.42;1.48;;;0.50;99.90;;;;;;4915055;28;20100;-89
2021/04/06 04:01:38;;;;;;;3.65;1.08;;;0.60;99.90;;;;;;4928656;28;20102;-91
2021/04/06 04:04:01;;;;;;;10.80;1.02;;;0.60;99.90;;;;;;4927030;28;20090;-91
2021/04/06 04:06:26;;;;;;;9.65;1.00;;;0.60;99.90;;;;;;4929181;28;20146;-91
2021/04/06 04:08:48;;;;;;;10.30;1.08;;;0.50;99.90;;;;;;4926031;28;20093;-91
2021/04/06 04:11:11;;;;;;;14.88;1.15;;;0.50;99.90;;;;;;4925719;28;20543;-92
2021/04/06 04:13:34;;;;;;;7.07;1.17;;;;;;;;;;4925174;28;20094;-92
2021/04/06 04:15:57;;;;;;;16.25;1.33;;;0.40;99.90;;;;;;4928308;28;20144;-88
2021/04/06 04:18:19;;;;;;;13.20;1.98;;;0.40;99.90;;;;;;4925911;28;20099;-89
2021/04/06 04:20:42;;;;;;;6.35;1.25;;;0.40;99.90;;;;;;4927027;28;20096;-91
2021/04/06 04:23:05;;;;;;;10.70;1.35;;;0.30;99.90;;;;;;4926614;28;20182;-88
2021/04/06 04:25:27;;;;;;;8.88;1.45;;;;;;;;;;4916392;28;20508;-91
2021/04/06 04:27:52;;;;;;;25.90;1.63;;;0.30;99.90;;;;;;4922948;28;20091;-89
2021/04/06 04:30:34;;;;;;;6.65;1.13;;;0.30;99.90;;;;;;4926879;28;20094;-88
2021/04/06 04:32:57;;;;;;;5.95;0.88;;;0.30;99.90;;;;;;4924826;28;20544;-89
2021/04/06 04:35:20;;;;;;;12.10;1.42;;;1.30;99.90;;;;;;4925389;28;20154;-89
2021/04/06 04:37:42;;;;;;;6.50;1.13;;;0.20;99.90;;;;;;4917896;28;20094;-90
2021/04/06 04:40:06;;;;;;;4.55;1.20;;;0.20;99.90;;;;;;4925351;28;20085;-91
2021/04/06 04:42:28;;;;;;;3.22;0.90;;;0.20;99.90;;;;;;4924432;28;20116;-92
2021/04/06 04:44:53;;;;;;;9.13;1.35;;;;;;;;;;4916742;28;20091;-90
2021/04/06 04:47:16;;;;;;;6.82;1.52;;;0.20;99.90;;;;;;4930088;28;20127;-89
2021/04/06 04:49:39;;;;;;;14.52;1.75;;;0.20;99.90;;;;;;4930234;28;20381;-87
2021/04/06 04:52:02;;;;;;;7.38;1.48;;;0.20;99.90;;;;;;4930243;28;20096;-92
2021/04/06 04:54:26;;;;;;;2.08;0.90;;;0.20;99.90;;;;;;4931111;28;20139;-87
2021/04/06 04:56:49;;;;;;;16.13;1.27;;;0.20;99.90;;;;;;4931731;28;20090;-90
2021/04/06 04:59:11;;;;;;;11.13;1.77;;;0.30;99.90;;;;;;4931467;28;20096;-85
2021/04/06 05:01:34;;;;;;;9.38;1.10;;;0.30;99.90;;;;;;4929672;28;20526;-88
2021/04/06 05:03:58;;;;;;;13.93;1.58;;;;;;;;;;4930952;28;20105;-88
2021/04/06 05:06:20;;;;;;;4.30;1.80;;;0.40;99.90;;;;;;4930787;28;20446;-90
2021/04/06 05:08:44;;;;;;;14.45;1.63;;;0.40;99.90;;;;;;4921155;28;20097;-84
2021/04/06 05:11:06;;;;;;;13.35;1.88;;;0.40;99.90;;;;;;4929740;28;20095;-92
2021/04/06 05:13:29;;;;;;;4.03;1.20;;;;;;;;;;4931548;28;20100;-91
2021/04/06 05:15:52;;;;;;;17.27;1.90;;;0.30;99.90;;;;;;4930478;28;20096;-89
2021/04/06 05:18:14;;;;;;;6.95;1.70;;;;;;;;;;4929056;28;21056;-89
2021/04/06 05:20:38;;;;;;;7.72;1.63;;;0.30;99.90;;;;;;4930517;28;20568;-88
2021/04/06 05:23:00;;;;;;;14.15;2.35;;;0.20;99.90;;;;;;4931080;28;20092;-91
2021/04/06 05:25:23;;;;;;;9.27;1.20;;;0.40;99.90;;;;;;4929457;28;20151;-91
2021/04/06 05:27:45;;;;;;;18.40;2.40;;;0.60;99.90;;;;;;4930285;28;20098;-92
2021/04/06 05:30:13;;;;;;;15.15;1.80;;;0.70;99.90;;;;;;4929733;28;20087;-90
2021/04/06 05:32:36;;;;;;;9.82;1.55;;;;;;;;;;4927464;28;20100;-88
2021/04/06 05:34:58;;;;;;;4.70;1.45;;;;;;;;;;4923364;28;20124;-90
2021/04/06 05:37:22;;;;;;;8.38;1.73;;;;;;;;;;4918923;28;20101;-92
2021/04/06 05:39:45;;;;;;;10.93;1.90;;;0.50;99.90;;;;;;4928615;28;20093;-90
2021/04/06 05:42:08;;;;;;;12.75;1.95;;;0.70;99.90;;;;;;4929356;28;20100;-91
2021/04/06 05:44:31;;;;;;;12.48;1.65;;;;;;;;;;4930861;28;20522;-90
2021/04/06 05:46:59;;;;;;;9.88;2.15;;;1.10;99.90;;;;;;4928977;28;20472;-88
2021/04/06 05:49:26;;;;;;;18.75;2.88;;;1.00;99.90;;;;;;4927606;28;20573;-90
2021/04/06 05:51:48;;;;;;;8.73;2.35;;;0.90;99.90;;;;;;4925257;28;20518;-89
2021/04/06 05:54:14;;;;;;;17.50;2.28;;;0.80;99.90;;;;;;4929661;28;20531;-85
2021/04/06 05:56:37;;;;;;;7.25;1.92;;;0.80;99.90;;;;;;4928234;28;20114;-90
2021/04/06 05:59:04;;;;;;;4.13;1.83;;;1.10;99.90;;;;;;4919836;28;20096;-89
2021/04/06 06:01:28;;;;;;;13.50;2.45;;;1.40;99.90;;;;;;4928188;28;20094;-89
2021/04/06 06:03:52;;;;;;;11.13;2.38;;;1.50;99.90;;;;;;4927433;28;20106;-90
2021/04/06 06:06:15;;;;;;;11.43;2.35;;;1.60;99.90;;;;;;4929679;28;20114;-90
2021/04/06 06:08:39;;;;;;;18.40;2.10;;;1.80;99.90;;;;;;4928974;28;20078;-86
2021/04/06 06:11:05;;;;;;;13.02;2.53;;;1.90;99.90;;;;;;4928228;28;20219;-90
2021/04/06 06:13:28;;;;;;;;;;;2.00;99.90;;;;;;4929143;28;20325;-88
2021/04/06 06:16:09;;;;;;;15.30;2.70;;;2.20;99.90;;;;;;4928449;28;19970;-87
2021/04/06 06:18:31;;;;;;;9.88;2.35;;;2.10;99.90;;;;;;4928429;28;20116;-90
2021/04/06 06:20:54;;;;;;;13.27;3.15;;;2.00;99.90;;;;;;4928890;28;20099;-88
2021/04/06 06:23:21;;;;;;;9.30;2.53;;;2.00;99.90;;;;;;4929319;28;20094;-91
2021/04/06 06:26:13;;;;;;;10.00;2.17;;;2.00;99.90;;;;;;4929303;28;20116;-88
2021/04/06 06:28:36;;;;;;;12.15;2.67;;;2.20;99.90;;;;;;4925918;28;20189;-88
2021/04/06 06:30:59;;;;;;;15.30;2.28;;;2.50;99.90;;;;;;4926869;28;20462;-88
2021/04/06 06:33:23;;;;;;;14.27;2.60;;;2.60;99.90;;;;;;4926257;28;20098;-88
2021/04/06 06:35:47;;;;;;;11.82;2.60;;;2.80;99.90;;;;;;4925367;28;20086;-90
2021/04/06 06:38:23;;;;;;;8.70;2.13;;;2.80;99.90;;;;;;4924292;28;20093;-87
2021/04/06 06:40:47;;;;;;;15.75;2.38;;;2.90;99.90;;;;;;4926455;28;20509;-87
2021/04/06 06:43:13;;;;;;;8.97;2.63;;;2.70;99.90;;;;;;4923539;28;20085;-85
2021/04/06 06:45:37;;;;;;;19.92;3.53;;;2.90;99.90;;;;;;4926988;28;20090;-84
2021/04/06 06:47:59;;;;;;;11.73;2.15;;;3.40;99.90;;;;;;4925574;28;20091;-83
2021/04/06 06:50:22;;;;;;;21.70;2.85;;;;;;;;;;4927785;28;20093;-90
2021/04/06 06:52:45;;;;;;;11.82;3.13;;;3.60;99.90;;;;;;4925746;28;21824;-88
2021/04/06 06:55:19;;;;;;;11.95;2.40;;;4.50;99.90;;;;;;4928081;28;20110;-86
2021/04/06 06:57:42;;;;;;;10.90;2.10;;;5.40;99.90;;;;;;4923824;28;20566;-89
2021/04/06 07:00:16;;;;;;;13.80;2.47;;;6.00;99.90;;;;;;4929668;28;20094;-90
2021/04/06 07:02:39;;;;;;;8.10;2.05;;;6.50;99.90;;;;;;4925832;28;20101;-86
2021/04/06 07:05:20;;;;;;;11.95;2.50;;;6.20;99.90;;;;;;4927183;28;20086;-88
2021/04/06 07:07:52;;;;;;;11.48;2.17;;;6.40;99.90;;;;;;4914223;28;20086;-89
2021/04/06 07:10:15;;;;;;;13.88;2.35;;;6.30;99.90;;;;;;4917939;28;20100;-90
2021/04/06 07:12:38;;;;;;;14.70;2.78;;;6.10;99.90;;;;;;4912710;28;20176;-91
2021/04/06 07:15:01;;;;;;;15.52;2.47;;;6.50;99.90;;;;;;4920630;28;20469;-88
2021/04/06 07:17:26;;;;;;;7.22;2.30;;;7.30;99.90;;;;;;4920051;28;20591;-87
2021/04/06 07:19:48;;;;;;;10.68;2.33;;;7.20;99.90;;;;;;4914461;28;20152;-88
2021/04/06 07:22:14;;;;;;;19.80;2.78;;;7.30;99.90;;;;;;4917965;28;20102;-90
2021/04/06 07:24:39;;;;;;;11.02;2.75;;;6.60;99.90;;;;;;4917636;28;20485;-89
2021/04/06 07:27:06;;;;;;;10.27;2.28;;;6.70;99.90;;;;;;4912672;28;20086;-90
2021/04/06 07:29:28;;;;;;;8.13;1.92;;;7.10;99.90;;;;;;4916650;28;20085;-89
2021/04/06 07:31:51;;;;;;;15.10;3.42;;;7.20;99.90;;;;;;4917771;28;20098;-89
2021/04/06 07:34:18;;;;;;;13.77;2.47;;;7.00;99.90;;;;;;4912303;28;20094;-92
2021/04/06 07:36:41;;;;;;;19.40;2.47;;;;;;;;;;4914705;28;20156;-91
2021/04/06 07:39:07;;;;;;;11.70;2.50;;;7.50;99.90;;;;;;4914433;28;20208;-89
2021/04/06 07:41:33;;;;;;;14.25;2.80;;;8.20;99.90;;;;;;4894776;28;20189;-91
2021/04/06 07:43:57;;;;;;;15.88;2.75;;;8.40;99.90;;;;;;4906840;28;20097;-90
2021/04/06 07:46:45;;;;;;;7.20;2.00;;;8.50;99.90;;;;;;4907817;28;20086;-88
2021/04/06 07:49:09;;;;;;;7.00;2.03;;;8.40;99.90;;;;;;4906641;28;20089;-89
2021/04/06 07:51:37;;;;;;;11.02;2.22;;;7.90;99.90;;;;;;4922761;28;20090;-90
2021/04/06 07:54:09;;;;;;;7.15;1.75;;;8.20;99.90;;;;;;4923839;28;20478;-89
2021/04/06 07:56:52;;;;;;;13.02;2.55;;;8.50;99.90;;;;;;4925834;28;20089;-91
2021/04/06 07:59:51;;;;;;;8.93;2.05;;;8.80;99.90;;;;;;4925369;28;20452;-90
2021/04/06 08:02:31;;;;;;;12.05;2.05;;;8.50;99.90;;;;;;4926708;28;20108;-92
2021/04/06 08:04:56;;;;;;;12.50;2.03;;;9.00;99.90;;;;;;4923638;28;20087;-92
2021/04/06 08:07:32;;;;;;;18.25;2.38;;;9.00;99.90;;;;;;4925729;28;20539;-92
2021/04/06 08:09:55;;;;;;;13.38;2.03;;;9.30;99.90;;;;;;4924999;28;20084;-93
2021/04/06 08:12:20;;;;;;;16.13;2.22;;;9.00;99.90;;;;;;4926102;28;20089;-90
2021/04/06 08:14:45;;;;;;;10.43;1.90;;;8.70;99.90;;;;;;4925195;28;20483;-90
2021/04/06 08:17:45;;;;;;;9.30;2.15;;;8.50;99.90;;;;;;4928602;28;20086;-93
2021/04/06 08:20:30;;;;;;;18.15;2.40;;;9.10;99.90;;;;;;4907201;28;24513;-92
2021/04/06 08:22:58;;;;;;;18.70;2.10;;;9.10;99.90;;;;;;4904703;28;20089;-92
2021/04/06 08:25:52;;;;;;;8.98;1.80;;;9.00;99.90;;;;;;4882734;28;20520;-95
2021/04/06 08:28:38;;;;;;;18.00;3.03;;;8.70;99.90;;;;;;4853548;28;20182;-94
2021/04/06 08:31:34;;;;;;;7.07;1.75;;;9.20;99.90;;;;;;4902438;28;20089;-91
2021/04/06 08:34:29;;;;;;;7.53;1.75;;;8.10;99.90;;;;;;4877163;28;20081;-90
2021/04/06 08:37:08;;;;;;;7.43;1.42;;;8.40;99.90;;;;;;4912145;28;20540;-92
2021/04/06 08:39:34;;;;;;;10.80;1.40;;;;;;;;;;4913103;28;20089;-91
2021/04/06 08:41:57;;;;;;;11.27;1.48;;;;;;;;;;4904593;28;20089;-92
2021/04/06 08:44:20;;;;;;;10.23;1.42;;;8.90;99.90;;;;;;4898302;28;20087;-85
2021/04/06 08:46:46;;;;;;;9.30;1.73;;;8.80;99.90;;;;;;4908487;28;20083;-88
2021/04/06 08:49:12;;;;;;;11.10;1.67;;;8.70;99.90;;;;;;4914958;28;20087;-87
2021/04/06 08:51:41;;;;;;;12.50;1.60;;;8.50;99.90;;;;;;4915415;28;20094;-92
2021/04/06 08:54:07;;;;;;;12.80;1.95;;;8.50;99.90;;;;;;4906015;28;20087;-91
2021/04/06 08:56:34;;;;;;;6.82;1.52;;;9.20;99.90;;;;;;4907840;28;20169;-91
2021/04/06 08:59:12;;;;;;;7.25;1.92;;;9.20;99.90;;;;;;4906602;28;20124;-92
2021/04/06 09:01:43;;;;;;;12.30;1.88;;;9.40;99.90;;;;;;4877811;28;20082;-91
2021/04/06 09:04:32;;;;;;;9.93;1.80;;;9.10;99.90;;;;;;4851981;28;20143;-89
2021/04/06 09:07:02;;;;;;;11.48;1.80;;;8.30;99.90;;;;;;4857655;28;20775;-93
2021/04/06 09:09:35;;;;;;;11.95;1.52;;;8.60;99.90;;;;;;4869893;28;20180;-89
2021/04/06 09:12:06;;;;;;;13.02;2.00;;;8.20;99.90;;;;;;4858663;28;20090;-85
2021/04/06 09:15:01;;;;;;;6.78;1.40;;;7.70;99.90;;;;;;4868429;28;20083;-91
2021/04/06 09:17:57;;;;;;;15.20;1.85;;;7.40;99.90;;;;;;4850742;28;20177;-88
2021/04/06 09:20:54;;;;;;;11.63;1.70;;;7.60;99.90;;;;;;4841461;28;20243;-86
2021/04/06 09:23:49;;;;;;;;;;;7.70;99.90;;;;;;4865515;28;21465;-86
2021/04/06 09:29:31;;;;;;;13.88;2.55;;;7.00;99.90;;;;;;4858330;28;20422;-88
2021/04/06 09:35:54;;;;;;;17.42;2.25;;;6.10;99.90;;;;;;4843531;28;20085;-89
2021/04/06 09:38:27;;;;;;;8.23;1.13;;;7.00;99.90;;;;;;4852161;28;20098;-88
2021/04/06 09:41:05;;;;;;;12.60;1.90;;;7.20;99.90;;;;;;4863061;28;20117;-90
2021/04/06 10:03:46;;;;;;;11.10;1.23;;;7.50;99.90;;;;;;4878316;28;20148;-88
2021/04/06 10:07:01;;;;;;;11.15;1.35;;;7.20;99.90;;;;;;4858027;28;20110;-89
2021/04/06 10:12:49;;;;;;;14.77;1.40;;;7.40;99.90;;;;;;4869085;28;20087;-88
2021/04/06 10:22:12;;;;;;;5.78;0.55;;;5.50;99.90;;;;;;4863395;28;20483;-91
2021/04/06 10:24:55;;;;;;;6.20;1.50;;;5.60;99.90;;;;;;4860259;28;20542;-87
2021/04/06 10:30:50;;;;;;;2.67;0.60;;;5.70;99.90;;;;;;4866595;28;20090;-86
2021/04/06 10:33:55;;;;;;;6.03;1.23;;;4.10;99.90;;;;;;4870659;28;20093;-86
2021/04/06 10:36:21;;;;;;;18.02;2.15;;;5.90;99.90;;;;;;4868833;28;20475;-87
2021/04/06 10:42:13;;;;;;;4.60;0.93;;;7.20;99.90;;;;;;4853083;28;19959;-88
2021/04/06 10:45:07;;;;;;;10.98;1.25;;;7.00;99.90;;;;;;4858829;28;20087;-88
2021/04/06 10:48:04;;;;;;;4.10;0.93;;;7.50;99.90;;;;;;4857014;28;20075;-88
2021/04/06 10:50:59;;;;;;;3.90;0.70;;;7.80;99.90;;;;;;4874357;28;20447;-84
2021/04/06 10:53:25;;;;;;;2.38;0.80;;;7.20;99.90;;;;;;4856584;28;20089;-87
2021/04/06 10:55:54;;;;;;;11.13;0.95;;;7.00;99.90;;;;;;4919054;28;20094;-88
2021/04/06 10:58:25;;;;;;;3.63;0.52;;;7.20;99.90;;;;;;4924570;28;20099;-89
2021/04/06 11:00:56;;;;;;;10.27;1.02;;;6.80;99.90;;;;;;4928755;28;20085;-87
2021/04/06 11:03:19;;;;;;;7.32;1.10;;;7.60;99.90;;;;;;4927070;28;20122;-86
2021/04/06 11:05:44;;;;;;;8.10;0.90;;;7.70;99.90;;;;;;4929047;28;20097;-86
2021/04/06 11:08:24;;;;;;;1.88;0.50;;;8.30;99.90;;;;;;4927329;28;20081;-87
2021/04/06 11:10:47;;;;;;;7.53;1.13;;;;;;;;;;4923816;28;20089;-88
2021/04/06 11:13:12;;;;;;;6.38;0.90;;;8.60;99.90;;;;;;4927083;28;20093;-88
2021/04/06 11:15:35;;;;;;;8.63;1.08;;;9.00;99.90;;;;;;4928781;28;20087;-90
2021/04/06 11:17:58;;;;;;;3.05;0.63;;;8.90;99.90;;;;;;4925905;28;20111;-88
2021/04/06 11:20:21;;;;;;;5.38;0.65;;;8.60;99.90;;;;;;4926929;28;20096;-85
2021/04/06 11:22:43;;;;;;;12.07;1.15;;;8.60;99.90;;;;;;4927348;28;20097;-84
2021/04/06 11:25:07;;;;;;;5.38;0.88;;;8.90;99.90;;;;;;4924983;28;20123;-87
2021/04/06 11:27:30;;;;;;;12.50;1.02;;;9.30;99.90;;;;;;4925167;28;20092;-87
2021/04/06 11:29:55;;;;;;;8.40;1.02;;;8.80;99.90;;;;;;4926224;28;20084;-89
2021/04/06 11:32:22;;;;;;;;;;;9.10;99.90;;;;;;4927664;28;20107;-88
2021/04/06 11:34:46;;;;;;;7.88;0.60;;;9.10;99.90;;;;;;4926517;28;20442;-89
2021/04/06 11:37:11;;;;;;;5.50;0.95;;;9.10;99.90;;;;;;4921891;28;20084;-87
2021/04/06 11:39:36;;;;;;;5.68;0.75;;;9.10;99.90;;;;;;4926997;28;20462;-88
2021/04/06 11:41:59;;;;;;;4.07;0.70;;;8.90;99.90;;;;;;4924476;28;20678;-89
2021/04/06 11:44:22;;;;;;;6.53;0.60;;;8.40;99.90;;;;;;4924326;28;20084;-88
2021/04/06 11:46:49;;;;;;;8.13;0.63;;;8.10;99.90;;;;;;4926084;28;20101;-88
2021/04/06 11:49:14;;;;;;;6.13;0.50;;;8.50;99.90;;;;;;4925759;28;20093;-87
2021/04/06 11:51:36;;;;;;;7.90;1.02;;;;;;;;;;4926385;28;20109;-87
2021/04/06 11:53:59;;;;;;;7.25;1.27;;;8.50;99.90;;;;;;4923567;28;20128;-88
2021/04/06 11:56:22;;;;;;;16.73;0.88;;;7.90;99.90;;;;;;4926028;28;20486;-88
2021/04/06 11:58:45;;;;;;;5.63;0.70;;;7.20;99.90;;;;;;4926717;28;20087;-87
2021/04/06 12:01:07;;;;;;;4.15;0.75;;;6.80;99.90;;;;;;4927553;28;20129;-88
2021/04/06 12:03:31;;;;;;;2.00;0.38;;;6.60;99.90;;;;;;4924927;28;20100;-89
2021/04/06 12:05:54;;;;;;;4.75;0.50;;;6.70;99.90;;;;;;4927643;28;20086;-90
2021/04/06 12:08:16;;;;;;;5.15;0.60;;;6.50;99.90;;;;;;4925316;28;20089;-88
2021/04/06 12:10:39;;;;;;;8.77;0.70;;;6.30;99.90;;;;;;4927622;28;20113;-87
2021/04/06 12:13:01;;;;;;;3.92;0.60;;;6.10;99.90;;;;;;4926270;28;20094;-91
2021/04/06 12:15:24;;;;;;;5.13;0.63;;;6.00;99.90;;;;;;4927521;28;20090;-88
2021/04/06 12:17:49;;;;;;;5.40;0.57;;;6.00;99.90;;;;;;4926312;28;20098;-88
2021/04/06 12:20:14;;;;;;;4.18;0.50;;;;;;;;;;4926787;28;20585;-90
2021/04/06 12:22:37;;;;;;;4.95;0.65;;;5.90;99.90;;;;;;4926210;28;20086;-89
2021/04/06 12:24:59;;;;;;;7.63;0.90;;;6.00;99.90;;;;;;4926967;28;20136;-89
2021/04/06 12:27:22;;;;;;;4.13;0.52;;;6.00;99.90;;;;;;4925491;28;20082;-87
2021/04/06 12:29:44;;;;;;;5.13;0.73;;;6.10;99.90;;;;;;4925521;28;20120;-89
2021/04/06 12:32:07;;;;;;;6.88;0.70;;;6.00;99.90;;;;;;4926794;28;20090;-87
2021/04/06 12:34:30;;;;;;;2.97;0.60;;;5.90;99.90;;;;;;4926882;28;20151;-90
2021/04/06 12:36:53;;;;;;;1.35;0.50;;;5.80;99.90;;;;;;4926852;28;20091;-90
2021/04/06 12:39:16;;;;;;;7.22;0.60;;;5.90;99.90;;;;;;4925129;28;20437;-89
2021/04/06 12:41:38;;;;;;;5.38;0.85;;;6.00;99.90;;;;;;4927593;28;20109;-86
2021/04/06 12:44:01;;;;;;;6.25;0.80;;;6.10;99.90;;;;;;4925679;28;20091;-87
2021/04/06 12:46:23;;;;;;;5.30;0.75;;;6.30;99.90;;;;;;4926401;28;20140;-87
2021/04/06 12:48:46;;;;;;;8.82;0.63;;;6.30;99.90;;;;;;4925149;28;20149;-88
2021/04/06 12:51:08;;;;;;;6.03;1.00;;;6.00;99.90;;;;;;4928357;28;20091;-89
2021/04/06 12:53:32;;;;;;;1.45;0.30;;;;;;;;;;4910666;28;20090;-87
2021/04/06 12:55:55;;;;;;;4.68;0.55;;;;;;;;;;4927751;28;20151;-88
2021/04/06 12:58:19;;;;;;;4.95;0.70;;;6.30;99.90;;;;;;4925710;28;20153;-86
2021/04/06 13:00:42;;;;;;;1.85;0.30;;;6.70;99.90;;;;;;4924275;28;20449;-88
2021/04/06 13:03:06;;;;;;;3.85;0.47;;;6.70;99.90;;;;;;4926267;28;20464;-88
2021/04/06 13:05:30;;;;;;;2.42;0.40;;;6.80;99.90;;;;;;4927187;28;20139;-88
2021/04/06 13:07:53;;;;;;;4.70;1.35;;;6.90;99.90;;;;;;4928392;28;20083;-90
2021/04/06 13:10:17;;;;;;;3.88;0.60;;;7.20;99.90;;;;;;4929005;28;20086;-86
2021/04/06 13:12:41;;;;;;;2.30;0.57;;;7.40;99.90;;;;;;4931706;28;20106;-86
2021/04/06 13:15:06;;;;;;;2.30;0.50;;;7.10;99.90;;;;;;4931199;28;20093;-90
2021/04/06 13:17:29;;;;;;;2.58;0.57;;;6.80;99.90;;;;;;4921842;28;20095;-87
2021/04/06 13:19:51;;;;;;;2.45;0.50;;;6.70;99.90;;;;;;4927381;28;20093;-89
2021/04/06 13:22:14;;;;;;;4.22;0.50;;;6.80;99.90;;;;;;4932372;28;20548;-88
2021/04/06 13:24:37;;;;;;;6.15;0.65;;;7.20;99.90;;;;;;4930543;28;20094;-85
2021/04/06 13:27:01;;;;;;;3.65;0.30;;;7.70;99.90;;;;;;4932808;28;20115;-89
2021/04/06 13:29:23;;;;;;;1.65;0.50;;;7.60;99.90;;;;;;4928395;28;20616;-89
2021/04/06 13:31:46;;;;;;;4.97;0.63;;;7.20;99.90;;;;;;4928694;28;20083;-91
2021/04/06 13:34:09;;;;;;;7.28;0.50;;;7.10;99.90;;;;;;4928962;28;20090;-87
2021/04/06 13:36:32;;;;;;;6.25;0.57;;;7.10;99.90;;;;;;4929193;28;20087;-87
2021/04/06 13:38:55;;;;;;;4.07;0.45;;;6.90;99.90;;;;;;4928373;28;20156;-86
2021/04/06 13:41:17;;;;;;;6.82;0.98;;;6.60;99.90;;;;;;4927449;28;20170;-86
2021/04/06 13:43:40;;;;;;;4.70;0.88;;;6.10;99.90;;;;;;4930529;28;20086;-86